Time;durP1;ratioP1;P1;durP2;ratioP2;P2;SDS_P1;SDS_P2;PMS_P1;PMS_P2;Temp;Humidity;BMP_temperature;BMP_pressure;BME280_temperature;BME280_humidity;BME280_pressure;Samples;Min_cycle;Max_cycle;Signal;HPM_P1;HPM_P2
2022/02/21 00:01:07;;;;;;;0.80;0.50;;;;;;;10.29;76.20;98477.69;2846848;82;21021;-62
2022/02/21 00:05:11;;;;;;;0.20;0.20;;;;;;;10.26;76.15;98466.88;2870282;82;21087;-62
2022/02/21 00:09:14;;;;;;;0.70;0.30;;;;;;;10.23;76.63;98452.61;2848646;82;22056;-63
2022/02/21 00:13:17;;;;;;;0.47;0.23;;;;;;;10.23;76.87;98437.99;2884341;80;21074;-63
2022/02/21 00:17:19;;;;;;;1.30;0.78;;;;;;;10.17;77.36;98427.20;2872692;82;21059;-64
2022/02/21 00:21:21;;;;;;;0.62;0.35;;;;;;;10.15;77.94;98416.77;2880571;82;20992;-63
2022/02/21 00:25:23;;;;;;;0.20;0.20;;;;;;;10.11;77.27;98410.95;2880346;80;21023;-62
2022/02/21 00:29:25;;;;;;;0.20;0.13;;;;;;;10.18;77.18;98392.99;2890902;80;21157;-60
2022/02/21 00:33:29;;;;;;;0.13;0.10;;;;;;;10.13;76.92;98384.23;2878845;81;21024;-61
2022/02/21 00:37:32;;;;;;;0.40;0.17;;;;;;;10.18;76.84;98369.08;2882075;80;21039;-61
2022/02/21 00:41:34;;;;;;;0.20;0.20;;;;;;;10.14;77.56;98360.64;2882446;81;20996;-63
2022/02/21 00:45:36;;;;;;;0.60;0.60;;;;;;;10.12;77.52;98356.81;2858808;80;21015;-63
2022/02/21 00:49:38;;;;;;;0.20;0.20;;;;;;;10.17;78.12;98346.17;2875891;80;21024;-62
2022/02/21 00:53:40;;;;;;;0.28;0.20;;;;;;;10.15;77.84;98344.52;2831137;82;21130;-62
2022/02/21 00:57:42;;;;;;;0.28;0.23;;;;;;;10.10;78.06;98330.92;2828901;82;21039;-62
2022/02/21 01:01:50;;;;;;;0.20;0.20;;;;;;;10.11;78.07;98339.22;2845415;82;20993;-62
2022/02/21 01:05:52;;;;;;;0.13;0.13;;;;;;;10.13;78.58;98339.06;2857041;82;21032;-62
2022/02/21 01:09:55;;;;;;;1.17;0.40;;;;;;;10.15;79.55;98329.91;2882240;81;21133;-62
2022/02/21 01:13:58;;;;;;;0.03;0.00;;;;;;;10.13;80.26;98323.13;2886789;82;20999;-61
2022/02/21 01:18:00;;;;;;;0.70;0.10;;;;;;;10.02;81.40;98311.52;2873198;82;21161;-62
2022/02/21 01:22:03;;;;;;;0.10;0.10;;;;;;;9.96;82.37;98294.44;2877411;81;21078;-64
2022/02/21 01:26:05;;;;;;;0.57;0.40;;;;;;;9.95;82.35;98265.73;2828547;82;21006;-63
2022/02/21 01:30:12;;;;;;;1.12;0.53;;;;;;;9.95;82.43;98235.68;2821761;83;21106;-62
2022/02/21 01:34:24;;;;;;;1.10;0.60;;;;;;;9.93;82.43;98210.64;2826499;83;21110;-63
2022/02/21 01:38:26;;;;;;;1.75;1.45;;;;;;;9.92;82.04;98194.34;2821555;83;20996;-62
2022/02/21 01:42:28;;;;;;;1.37;0.40;;;;;;;9.91;81.35;98188.71;2817292;83;21031;-63
2022/02/21 01:46:30;;;;;;;3.92;0.82;;;;;;;9.88;81.14;98185.59;2815174;83;21083;-62
2022/02/21 01:50:32;;;;;;;0.93;0.62;;;;;;;9.83;79.45;98176.33;2829628;82;21039;-62
2022/02/21 01:54:34;;;;;;;2.22;1.00;;;;;;;9.90;78.08;98162.34;2829697;83;21078;-63
2022/02/21 02:07:47;;;;;;;0.53;0.10;;;;;;;9.86;78.60;98127.33;2642990;89;21118;-63
2022/02/21 02:11:51;;;;;;;1.12;0.75;;;;;;;9.90;78.59;98123.32;2640725;88;21013;-63
2022/02/21 02:15:58;;;;;;;0.90;0.50;;;;;;;9.88;78.57;98119.20;2658593;87;21119;-63
2022/02/21 02:20:01;;;;;;;0.17;0.10;;;;;;;9.86;78.81;98111.41;2653185;88;21064;-64
2022/02/21 02:24:04;;;;;;;0.20;0.20;;;;;;;9.83;78.05;98091.36;2646021;88;21953;-62
2022/02/21 02:28:07;;;;;;;0.10;0.10;;;;;;;9.88;77.72;98087.34;2654241;88;21117;-63
2022/02/21 02:32:11;;;;;;;0.33;0.30;;;;;;;10.03;76.89;98064.34;2645375;87;21065;-64
2022/02/21 02:36:13;;;;;;;0.60;0.20;;;;;;;10.22;77.10;98055.54;2664953;88;21029;-65
2022/02/21 02:40:15;;;;;;;0.57;0.30;;;;;;;10.32;76.66;98044.17;2652957;87;21393;-63
2022/02/21 02:44:18;;;;;;;0.53;0.53;;;;;;;10.35;76.82;98027.87;2607586;88;21184;-62
2022/02/21 02:48:20;;;;;;;0.60;0.45;;;;;;;10.43;76.67;98014.55;2585968;89;21093;-63
2022/02/21 02:52:21;;;;;;;1.00;0.65;;;;;;;10.51;76.56;97991.02;2595154;90;21046;-62
2022/02/21 02:56:23;;;;;;;10.88;1.32;;;;;;;10.54;76.21;97973.90;2589517;90;21053;-65
2022/02/21 03:00:25;;;;;;;1.45;0.70;;;;;;;10.55;76.24;97958.27;2586725;90;21082;-62
2022/02/21 03:04:28;;;;;;;0.82;0.50;;;;;;;10.57;76.13;97941.63;2585466;90;21098;-64
2022/02/21 03:08:36;;;;;;;1.02;0.75;;;;;;;10.59;75.68;97930.30;2592442;90;21077;-62
2022/02/21 03:12:38;;;;;;;2.12;1.02;;;;;;;10.61;75.20;97926.15;2598204;90;21074;-63
2022/02/21 03:16:40;;;;;;;1.82;0.40;;;;;;;10.62;75.07;97933.95;2591033;90;21099;-62
2022/02/21 03:20:41;;;;;;;1.10;0.30;;;;;;;10.66;74.56;97927.25;2590677;90;21030;-64
2022/02/21 03:24:45;;;;;;;1.85;0.60;;;;;;;10.66;73.97;97924.59;2583189;90;21054;-63
2022/02/21 03:28:54;;;;;;;0.65;0.65;;;;;;;10.75;73.32;97905.37;2592344;90;21572;-61
2022/02/21 03:33:05;;;;;;;4.75;0.88;;;;;;;10.73;74.16;97909.22;2597375;90;21086;-62
2022/02/21 03:37:07;;;;;;;7.10;1.67;;;;;;;10.63;74.04;97897.05;2595521;90;21102;-62
2022/02/21 03:41:08;;;;;;;1.98;0.60;;;;;;;10.54;74.69;97892.34;2589100;90;21058;-64
2022/02/21 03:45:11;;;;;;;0.90;0.37;;;;;;;10.51;73.89;97897.19;2590023;90;21030;-64
2022/02/21 03:49:13;;;;;;;0.37;0.30;;;;;;;10.59;73.36;97883.78;2642459;87;21060;-62
2022/02/21 03:53:15;;;;;;;0.65;0.55;;;;;;;10.65;73.35;97876.42;2648488;89;21056;-63
2022/02/21 03:57:17;;;;;;;1.55;0.40;;;;;;;10.76;73.28;97871.12;2639043;89;21030;-63
2022/02/21 04:01:19;;;;;;;1.45;0.42;;;;;;;10.78;72.96;97870.92;2647118;88;21134;-63
2022/02/21 04:05:21;;;;;;;0.88;0.60;;;;;;;10.81;72.52;97863.41;2652756;89;21030;-64
2022/02/21 04:09:57;;;;;;;2.05;0.60;;;;;;;10.85;72.21;97852.70;2638885;88;21048;-63
2022/02/21 04:13:59;;;;;;;1.32;0.60;;;;;;;10.89;72.13;97835.03;2630257;89;21029;-63
2022/02/21 04:18:02;;;;;;;1.30;0.47;;;;;;;10.94;71.40;97837.45;2616204;89;21060;-65
2022/02/21 04:22:09;;;;;;;0.33;0.30;;;;;;;11.02;71.21;97830.39;2604060;89;21115;-68
2022/02/21 04:26:08;;;;;;;3.67;0.68;;;;;;;11.02;71.49;97811.77;2622699;89;21157;-66
2022/02/21 04:34:25;;;;;;;3.15;0.57;;;;;;;11.02;71.26;97805.12;2748156;85;21178;-67
2022/02/21 04:38:26;;;;;;;3.30;0.98;;;;;;;11.03;70.69;97806.77;2746762;85;21431;-67
2022/02/21 04:42:28;;;;;;;1.75;0.37;;;;;;;11.17;70.68;97801.86;2753722;85;21079;-67
2022/02/21 04:46:29;;;;;;;0.40;0.40;;;;;;;11.14;70.63;97797.77;2748274;86;21099;-67
2022/02/21 04:50:31;;;;;;;2.08;0.60;;;;;;;11.20;70.46;97798.02;2750717;85;21049;-67
2022/02/21 04:54:33;;;;;;;1.27;0.68;;;;;;;11.16;70.30;97798.89;2754220;85;21019;-67
2022/02/21 04:58:35;;;;;;;0.28;0.28;;;;;;;11.26;70.59;97799.41;2751582;85;21001;-67
2022/02/21 05:02:37;;;;;;;0.55;0.53;;;;;;;11.25;70.16;97793.77;2751224;85;21695;-67
2022/02/21 05:06:38;;;;;;;0.70;0.40;;;;;;;11.28;70.21;97785.39;2749110;85;21084;-69
2022/02/21 05:10:40;;;;;;;3.22;0.70;;;;;;;11.34;69.90;97772.33;2749946;85;21085;-68
2022/02/21 05:14:41;;;;;;;0.57;0.50;;;;;;;11.34;69.59;97768.33;2749855;85;21090;-69
2022/02/21 05:18:43;;;;;;;1.10;0.30;;;;;;;11.35;69.76;97779.30;2776022;83;21068;-68
2022/02/21 05:22:45;;;;;;;0.20;0.20;;;;;;;11.26;69.50;97778.11;2797686;83;21017;-68
2022/02/21 05:26:47;;;;;;;0.82;0.47;;;;;;;11.23;69.95;97770.52;2778759;83;21128;-69
2022/02/21 05:30:48;;;;;;;0.68;0.57;;;;;;;11.26;70.57;97776.78;2751167;85;21044;-69
2022/02/21 05:34:50;;;;;;;1.15;0.42;;;;;;;11.26;69.59;97783.44;2709038;86;21058;-69
2022/02/21 05:38:52;;;;;;;1.27;0.50;;;;;;;11.31;69.90;97771.39;2691931;87;21057;-69
2022/02/21 05:42:54;;;;;;;0.82;0.65;;;;;;;11.43;69.54;97796.47;2751866;85;21005;-68
2022/02/21 05:46:56;;;;;;;1.92;0.50;;;;;;;11.51;69.19;97799.51;2749761;85;21016;-68
2022/02/21 05:50:57;;;;;;;1.65;0.70;;;;;;;11.56;69.41;97804.55;2752455;85;21060;-69
2022/02/21 05:54:59;;;;;;;1.07;0.70;;;;;;;11.52;69.65;97836.56;2749648;85;21052;-68
2022/02/21 05:59:03;;;;;;;5.83;0.55;;;;;;;11.40;73.09;97900.67;2750306;85;21075;-68
2022/02/21 06:03:05;;;;;;;0.55;0.55;;;;;;;10.34;78.30;97901.32;2749510;85;21067;-68
2022/02/21 06:07:06;;;;;;;3.40;0.55;;;;;;;9.91;80.87;97889.95;2751835;85;21067;-68
2022/02/21 06:11:08;;;;;;;0.28;0.25;;;;;;;9.72;82.57;97884.66;2748928;85;21345;-68
2022/02/21 06:15:11;;;;;;;1.07;0.47;;;;;;;9.60;77.23;97905.99;2752104;85;21664;-68
2022/02/21 06:19:14;;;;;;;0.23;0.23;;;;;;;9.64;75.53;97917.41;2751003;85;21021;-68
2022/02/21 06:23:16;;;;;;;0.30;0.20;;;;;;;9.57;73.89;97914.64;2748588;85;22319;-69
2022/02/21 06:27:17;;;;;;;0.40;0.30;;;;;;;9.50;73.17;97933.61;2753204;84;21076;-68
2022/02/21 06:31:20;;;;;;;1.90;0.40;;;;;;;9.45;74.28;97939.12;2750889;84;21016;-68
2022/02/21 06:35:22;;;;;;;0.72;0.35;;;;;;;9.43;74.16;97945.42;2749397;84;21376;-68
2022/02/21 06:39:23;;;;;;;1.95;0.35;;;;;;;9.36;73.57;97942.32;2753387;84;21067;-69
2022/02/21 06:43:25;;;;;;;0.95;0.30;;;;;;;9.29;73.65;97973.55;2756673;84;21081;-68
2022/02/21 06:47:27;;;;;;;1.30;0.50;;;;;;;9.15;73.18;97970.30;2758080;84;21111;-68
2022/02/21 06:51:29;;;;;;;0.30;0.30;;;;;;;9.03;73.59;97987.58;2749278;84;21044;-68
2022/02/21 06:55:30;;;;;;;1.07;0.72;;;;;;;8.99;72.75;97984.47;2750772;84;21012;-68
2022/02/21 06:59:32;;;;;;;2.27;0.20;;;;;;;8.93;73.37;97995.26;2742741;84;21093;-68
2022/02/21 07:03:34;;;;;;;0.75;0.35;;;;;;;8.81;73.87;98008.55;2755859;84;21025;-68
2022/02/21 07:07:36;;;;;;;0.33;0.28;;;;;;;8.67;73.28;98001.64;2747210;84;21103;-68
2022/02/21 07:11:38;;;;;;;2.05;0.60;;;;;;;8.65;73.73;98026.17;2750865;84;21032;-68
2022/02/21 07:15:39;;;;;;;1.22;0.62;;;;;;;8.54;75.25;98025.19;2752121;85;21080;-69
2022/02/21 07:19:41;;;;;;;1.05;0.45;;;;;;;8.47;74.28;98045.38;2750448;85;21071;-68
2022/02/21 07:23:43;;;;;;;0.75;0.42;;;;;;;8.35;73.00;98056.30;2747344;84;21049;-68
2022/02/21 07:27:51;;;;;;;5.40;0.40;;;;;;;8.33;74.18;98078.64;2744321;84;21033;-68
2022/02/21 07:31:53;;;;;;;1.37;0.70;;;;;;;8.21;72.19;98067.55;2744231;84;21053;-68
2022/02/21 07:35:56;;;;;;;0.20;0.20;;;;;;;8.15;73.91;98087.57;2751648;84;21040;-68
2022/02/21 07:39:57;;;;;;;3.30;0.40;;;;;;;8.07;74.02;98100.33;2746436;84;21064;-68
2022/02/21 07:43:59;;;;;;;1.37;0.93;;;;;;;7.98;74.06;98096.84;2744153;84;21126;-68
2022/02/21 07:48:01;;;;;;;0.47;0.37;;;;;;;7.96;73.91;98084.75;2755488;84;21142;-68
2022/02/21 07:52:04;;;;;;;1.12;0.53;;;;;;;7.94;73.92;98074.83;2751783;84;21104;-68
2022/02/21 07:56:06;;;;;;;1.40;0.70;;;;;;;7.91;74.46;98075.16;2745654;84;21258;-68
2022/02/21 08:00:11;;;;;;;0.65;0.28;;;;;;;7.95;73.95;98093.17;2746270;85;21091;-68
2022/02/21 08:04:12;;;;;;;0.68;0.42;;;;;;;7.93;72.27;98069.20;2751730;85;21116;-68
2022/02/21 08:08:15;;;;;;;1.70;0.88;;;;;;;7.91;71.92;98065.37;2759315;85;21095;-68
2022/02/21 08:12:16;;;;;;;0.57;0.50;;;;;;;7.96;71.45;98043.72;2752405;85;21008;-68
2022/02/21 08:16:18;;;;;;;0.47;0.30;;;;;;;7.95;71.52;98056.63;2747963;85;21044;-68
2022/02/21 08:20:23;;;;;;;0.70;0.70;;;;;;;7.97;71.86;98042.24;2752054;84;21104;-68
2022/02/21 08:24:25;;;;;;;0.37;0.30;;;;;;;8.01;73.38;98063.90;2746449;85;21016;-68
2022/02/21 08:28:26;;;;;;;0.88;0.62;;;;;;;7.99;74.02;98075.16;2752501;85;21307;-68
2022/02/21 08:32:28;;;;;;;0.60;0.40;;;;;;;8.03;74.95;98092.36;2745452;85;21417;-68
2022/02/21 08:36:30;;;;;;;1.45;1.07;;;;;;;8.03;76.20;98116.19;2751856;85;21061;-68
2022/02/21 08:40:31;;;;;;;1.50;0.95;;;;;;;8.05;75.36;98141.20;2754448;85;21016;-68
2022/02/21 08:44:33;;;;;;;3.15;0.93;;;;;;;8.02;75.81;98121.16;2749340;84;21103;-68
2022/02/21 08:48:35;;;;;;;0.88;0.60;;;;;;;8.11;76.41;98109.60;2749945;85;21118;-69
2022/02/21 08:52:41;;;;;;;1.85;0.95;;;;;;;8.17;75.38;98103.31;2756462;84;21044;-68
2022/02/21 08:56:43;;;;;;;1.82;0.85;;;;;;;8.21;74.84;98137.25;2751372;84;21040;-68
2022/02/21 09:00:45;;;;;;;1.02;0.55;;;;;;;8.21;73.81;98165.55;2745772;84;21088;-68
2022/02/21 09:04:46;;;;;;;2.75;1.00;;;;;;;8.17;72.56;98156.28;2747830;84;21049;-68
2022/02/21 09:08:48;;;;;;;2.27;1.40;;;;;;;8.11;71.77;98157.75;2750170;84;21044;-68
2022/02/21 09:12:50;;;;;;;1.52;1.00;;;;;;;8.06;71.80;98143.69;2742272;84;21025;-68
2022/02/21 09:16:51;;;;;;;0.95;0.78;;;;;;;7.92;69.56;98182.19;2745355;85;21591;-68
2022/02/21 09:20:53;;;;;;;2.70;0.60;;;;;;;7.57;72.69;98202.07;2744248;85;21080;-68
2022/02/21 09:24:55;;;;;;;1.70;0.50;;;;;;;7.28;73.21;98233.66;2731018;85;21101;-68
2022/02/21 09:28:58;;;;;;;5.35;1.42;;;;;;;7.15;74.27;98251.74;2758474;84;21032;-67
2022/02/21 09:32:59;;;;;;;1.70;0.68;;;;;;;7.05;74.08;98266.84;2751879;84;21044;-68
2022/02/21 09:37:01;;;;;;;1.42;0.70;;;;;;;6.85;75.68;98249.36;2752276;84;21060;-68
2022/02/21 09:41:04;;;;;;;1.70;1.42;;;;;;;6.85;77.94;98295.61;2750823;84;21021;-68
2022/02/21 09:45:08;;;;;;;3.62;1.32;;;;;;;6.77;77.19;98296.83;2757729;84;21012;-68
2022/02/21 09:49:10;;;;;;;5.83;1.32;;;;;;;6.70;77.05;98320.89;2748425;85;21092;-68
2022/02/21 09:53:11;;;;;;;1.45;1.25;;;;;;;6.68;76.69;98313.12;2758645;84;21067;-68
2022/02/21 09:57:16;;;;;;;5.40;0.90;;;;;;;6.71;75.40;98317.27;2755663;84;21087;-68
2022/02/21 10:01:21;;;;;;;1.95;0.65;;;;;;;6.71;74.56;98310.66;2750145;84;21049;-68
2022/02/21 10:05:28;;;;;;;0.75;0.55;;;;;;;6.73;73.02;98304.73;2756157;84;21060;-68
2022/02/21 10:09:30;;;;;;;1.00;0.42;;;;;;;6.81;72.19;98255.09;2748213;84;20993;-68
2022/02/21 10:13:32;;;;;;;1.57;1.00;;;;;;;6.89;71.20;98286.89;2752962;84;21029;-68
2022/02/21 10:17:33;;;;;;;2.15;0.60;;;;;;;6.92;71.33;98297.16;2734731;84;21032;-68
2022/02/21 10:21:57;;;;;;;2.60;0.68;;;;;;;7.04;72.87;98320.70;2748263;84;21103;-68
2022/02/21 10:26:02;;;;;;;2.58;1.57;;;;;;;6.93;72.57;98314.69;2761229;84;21049;-68
2022/02/21 10:30:07;;;;;;;2.72;0.68;;;;;;;6.91;72.70;98335.15;2743734;84;21045;-68
2022/02/21 10:34:09;;;;;;;10.23;1.60;;;;;;;6.80;71.55;98347.25;2742866;84;21053;-68
2022/02/21 10:38:11;;;;;;;3.30;1.52;;;;;;;6.93;72.12;98370.66;2748445;84;21133;-68
2022/02/21 10:42:13;;;;;;;3.08;1.25;;;;;;;6.88;70.72;98383.03;2752650;84;21053;-68
2022/02/21 10:46:15;;;;;;;2.62;1.62;;;;;;;6.83;70.27;98378.19;2750929;84;21048;-68
2022/02/21 10:50:17;;;;;;;9.75;2.62;;;;;;;6.83;72.09;98394.04;2755804;85;21188;-68
2022/02/21 10:54:22;;;;;;;2.77;1.62;;;;;;;6.93;69.69;98387.38;2747751;84;22898;-68
2022/02/21 10:58:26;;;;;;;3.15;1.50;;;;;;;7.10;69.96;98380.94;2752224;84;21115;-68
2022/02/21 11:02:28;;;;;;;3.02;1.75;;;;;;;7.10;69.29;98387.55;2749550;84;21068;-68
2022/02/21 11:06:30;;;;;;;6.53;2.62;;;;;;;7.34;69.04;98421.30;2750961;84;21024;-68
2022/02/21 11:10:33;;;;;;;3.33;1.75;;;;;;;7.52;68.63;98423.96;2752307;84;21166;-68
2022/02/21 11:14:38;;;;;;;13.95;2.85;;;;;;;7.74;66.98;98427.11;2750533;84;21080;-68
2022/02/21 11:18:39;;;;;;;5.33;1.17;;;;;;;7.85;66.56;98408.33;2756112;84;21109;-67
2022/02/21 11:22:41;;;;;;;6.42;2.60;;;;;;;8.00;63.63;98413.06;2745788;84;21021;-68
2022/02/21 11:27:21;;;;;;;2.10;1.10;;;;;;;8.06;63.98;98406.32;2756194;84;21051;-68
2022/02/21 11:31:33;;;;;;;3.27;1.45;;;;;;;8.26;62.98;98421.52;2753238;84;21812;-67
2022/02/21 11:40:58;;;;;;;2.92;1.25;;;;;;;8.62;60.18;98412.09;2747579;84;21099;-67
2022/02/21 11:45:04;;;;;;;5.78;1.40;;;;;;;8.53;60.83;98418.37;2748960;84;21056;-68
2022/02/21 11:49:06;;;;;;;3.20;1.30;;;;;;;8.23;61.03;98446.49;2756534;84;21080;-68
2022/02/21 11:53:25;;;;;;;3.42;1.85;;;;;;;8.06;61.66;98422.20;2755614;84;21056;-68
2022/02/21 11:57:30;;;;;;;3.45;1.22;;;;;;;8.09;61.91;98428.03;2749554;84;20989;-68
2022/02/21 12:01:32;;;;;;;4.70;1.00;;;;;;;8.16;60.53;98428.25;2749983;84;21020;-67
2022/02/21 12:05:35;;;;;;;2.75;1.50;;;;;;;8.13;60.06;98439.13;2752465;84;21075;-68
2022/02/21 12:09:43;;;;;;;3.95;1.02;;;;;;;8.32;62.04;98472.54;2752241;84;21100;-68
2022/02/21 12:14:11;;;;;;;3.33;1.55;;;;;;;7.96;64.84;98441.69;2760956;84;21076;-67
2022/02/21 12:18:30;;;;;;;3.35;1.85;;;;;;;7.29;69.65;98468.06;2754052;84;21077;-68
2022/02/21 12:22:34;;;;;;;5.92;1.32;;;;;;;7.13;72.27;98491.17;2746777;84;21041;-68
2022/02/21 12:26:41;;;;;;;3.08;1.62;;;;;;;7.44;71.43;98488.69;2750317;84;21067;-68
2022/02/21 12:30:50;;;;;;;5.70;1.80;;;;;;;7.74;68.77;98491.11;2736101;84;21065;-68
2022/02/21 12:34:52;;;;;;;4.15;1.62;;;;;;;7.95;66.36;98478.39;2752424;84;21100;-68
2022/02/21 12:38:59;;;;;;;1.80;0.95;;;;;;;7.98;62.04;98467.52;2748807;84;21178;-68
2022/02/21 12:43:01;;;;;;;3.42;0.90;;;;;;;7.98;61.94;98483.87;2748827;84;21084;-68
2022/02/21 12:47:05;;;;;;;1.75;0.82;;;;;;;8.07;60.81;98485.63;2749183;84;21040;-68
2022/02/21 12:51:07;;;;;;;3.62;0.95;;;;;;;8.23;60.49;98495.97;2752046;84;21032;-68
2022/02/21 12:55:15;;;;;;;4.10;1.10;;;;;;;8.26;60.70;98485.09;2753794;84;21087;-68
2022/02/21 12:59:24;;;;;;;3.10;1.32;;;;;;;8.31;60.70;98497.38;2755207;84;21180;-68
2022/02/21 13:03:27;;;;;;;2.05;1.12;;;;;;;8.44;61.18;98503.06;2750446;84;21036;-68
2022/02/21 13:07:30;;;;;;;2.70;1.20;;;;;;;8.50;59.74;98501.65;2745125;84;21079;-68
2022/02/21 13:11:36;;;;;;;0.72;0.68;;;;;;;8.57;60.92;98485.48;2741926;84;21389;-68
2022/02/21 13:15:38;;;;;;;2.33;1.07;;;;;;;8.59;57.91;98461.96;2753039;84;21091;-68
2022/02/21 13:19:44;;;;;;;3.65;1.87;;;;;;;8.67;58.80;98436.33;2737103;84;21526;-68
2022/02/21 13:23:46;;;;;;;6.35;0.98;;;;;;;8.83;57.26;98450.62;2748776;84;21024;-68
2022/02/21 13:27:48;;;;;;;4.15;1.35;;;;;;;8.70;54.64;98447.93;2746072;84;21144;-67
2022/02/21 13:31:50;;;;;;;3.05;1.15;;;;;;;8.64;56.60;98473.72;2758249;84;21117;-69
2022/02/21 13:35:59;;;;;;;7.78;1.07;;;;;;;8.53;56.53;98472.18;2745918;84;21083;-69
2022/02/21 13:40:16;;;;;;;3.17;1.42;;;;;;;8.63;57.26;98466.77;2746100;84;21038;-69
2022/02/21 13:44:21;;;;;;;3.10;1.45;;;;;;;8.63;57.01;98468.60;2747561;84;21064;-68
2022/02/21 13:48:24;;;;;;;1.53;0.70;;;;;;;8.46;55.47;98453.09;2750696;84;21160;-68
2022/02/21 13:52:26;;;;;;;3.22;0.60;;;;;;;8.12;56.31;98456.00;2746258;84;21116;-68
2022/02/21 13:56:30;;;;;;;3.62;0.68;;;;;;;7.96;56.80;98457.58;2748638;84;21033;-68
2022/02/21 14:00:47;;;;;;;1.45;0.72;;;;;;;8.13;57.96;98465.61;2750824;84;21052;-68
2022/02/21 14:04:50;;;;;;;2.37;0.60;;;;;;;8.42;57.33;98474.58;2749179;85;21068;-67
2022/02/21 14:08:57;;;;;;;2.45;0.95;;;;;;;8.52;55.14;98467.05;2749520;85;21075;-67
2022/02/21 14:13:03;;;;;;;1.90;1.07;;;;;;;8.67;56.41;98457.53;2751968;84;21583;-67
2022/02/21 14:17:04;;;;;;;1.12;0.75;;;;;;;8.87;56.54;98462.59;2683711;87;21046;-67
2022/02/21 14:21:08;;;;;;;2.00;0.65;;;;;;;8.99;55.62;98456.49;2741694;85;21065;-67
2022/02/21 14:25:10;;;;;;;2.92;1.15;;;;;;;9.07;56.04;98466.30;2740768;85;21073;-66
2022/02/21 14:29:12;;;;;;;1.22;0.65;;;;;;;9.02;55.36;98467.26;2744003;85;21079;-68
2022/02/21 14:33:14;;;;;;;3.27;0.98;;;;;;;8.99;57.07;98469.24;2750834;85;21064;-67
2022/02/21 14:37:17;;;;;;;2.05;1.35;;;;;;;9.02;56.68;98473.89;2746669;85;21055;-66
2022/02/21 14:41:19;;;;;;;1.50;1.22;;;;;;;9.03;56.53;98469.77;2744465;85;21030;-66
2022/02/21 14:45:21;;;;;;;3.08;1.35;;;;;;;9.02;56.18;98461.95;2744994;85;21084;-66
2022/02/21 14:49:23;;;;;;;1.27;0.80;;;;;;;9.07;57.27;98461.00;2744636;83;21041;-66
2022/02/21 14:53:24;;;;;;;3.47;1.50;;;;;;;9.14;55.14;98456.70;2713262;86;21657;-66
2022/02/21 14:57:26;;;;;;;1.40;0.90;;;;;;;9.30;54.87;98447.94;2690564;86;21101;-66
2022/02/21 15:01:29;;;;;;;1.60;0.85;;;;;;;9.31;55.89;98450.92;2746179;85;21079;-66
2022/02/21 15:05:32;;;;;;;2.90;1.52;;;;;;;9.23;54.95;98448.27;2745245;85;21036;-66
2022/02/21 15:09:33;;;;;;;4.00;1.70;;;;;;;9.07;54.86;98442.43;2746499;85;21005;-65
2022/02/21 15:13:35;;;;;;;2.47;1.47;;;;;;;9.00;55.47;98433.77;2695447;86;21081;-65
2022/02/21 15:17:37;;;;;;;4.78;1.77;;;;;;;9.03;56.06;98428.66;2746509;85;21025;-65
2022/02/21 15:21:38;;;;;;;3.70;1.00;;;;;;;8.98;55.73;98431.78;2627037;83;36898;-66
2022/02/21 15:25:40;;;;;;;6.00;1.95;;;;;;;8.91;54.59;98429.45;2482606;93;21707;-66
2022/02/21 15:29:42;;;;;;;2.92;1.20;;;;;;;8.81;55.21;98426.09;2484669;92;21674;-66
2022/02/21 15:33:44;;;;;;;3.08;1.75;;;;;;;8.70;55.77;98423.23;2473025;93;21187;-66
2022/02/21 15:37:46;;;;;;;1.77;1.10;;;;;;;8.57;55.77;98423.20;2506439;92;21153;-66
2022/02/21 15:41:48;;;;;;;1.90;1.50;;;;;;;8.50;55.78;98416.03;2446746;95;30934;-66
2022/02/21 15:45:50;;;;;;;4.33;1.40;;;;;;;8.43;56.09;98431.19;2445365;95;21291;-65
2022/02/21 15:49:51;;;;;;;2.87;1.55;;;;;;;8.32;56.30;98419.55;2444900;96;21128;-66
2022/02/21 15:53:53;;;;;;;5.80;2.08;;;;;;;8.18;54.99;98412.19;2447897;95;21185;-66
2022/02/21 15:57:55;;;;;;;2.30;1.45;;;;;;;8.08;56.07;98410.48;2448117;95;21809;-67
2022/02/21 16:01:58;;;;;;;6.28;3.10;;;;;;;7.94;56.04;98411.86;2447940;95;21812;-67
2022/02/21 16:06:00;;;;;;;7.03;3.45;;;;;;;7.77;56.70;98411.44;2509246;92;21146;-68
2022/02/21 16:10:01;;;;;;;6.30;3.22;;;;;;;7.69;57.33;98405.58;2496338;92;21105;-68
2022/02/21 16:14:03;;;;;;;4.37;2.60;;;;;;;7.57;57.60;98403.16;2503293;92;21096;-67
2022/02/21 16:18:05;;;;;;;10.05;3.27;;;;;;;7.47;57.68;98404.23;2482940;93;21074;-67
2022/02/21 16:22:07;;;;;;;5.42;2.15;;;;;;;7.42;57.97;98402.88;2411076;96;21136;-67
2022/02/21 16:26:08;;;;;;;4.75;2.95;;;;;;;7.29;57.74;98397.98;2504591;92;21162;-66
2022/02/21 16:30:15;;;;;;;8.33;2.87;;;;;;;7.29;57.87;98397.98;2468723;93;21645;-66
2022/02/21 16:34:15;;;;;;;6.40;3.50;;;;;;;7.19;58.07;98394.56;2512527;92;21600;-66
2022/02/21 16:38:18;;;;;;;5.97;2.80;;;;;;;7.17;58.52;98400.97;2498331;92;21125;-65
2022/02/21 16:42:20;;;;;;;3.50;2.20;;;;;;;7.14;58.13;98404.26;2475022;93;21686;-66
2022/02/21 16:46:23;;;;;;;2.75;1.67;;;;;;;7.09;58.54;98407.84;2474273;93;21085;-66
2022/02/21 16:50:25;;;;;;;3.42;1.72;;;;;;;7.08;59.02;98410.66;2502365;93;21120;-66
2022/02/21 16:54:26;;;;;;;9.90;2.35;;;;;;;7.02;58.95;98408.59;2494939;93;21740;-66
2022/02/21 16:58:34;;;;;;;6.45;1.95;;;;;;;6.93;59.30;98407.20;2483810;93;21160;-65
2022/02/21 17:02:32;;;;;;;4.17;2.42;;;;;;;6.93;59.43;98402.39;2473429;93;21075;-65
2022/02/21 17:06:34;;;;;;;4.20;2.20;;;;;;;6.88;59.43;98401.53;2469858;93;21152;-65
2022/02/21 17:10:36;;;;;;;12.03;4.87;;;;;;;6.84;59.33;98397.02;2451993;94;21174;-65
2022/02/21 17:14:38;;;;;;;9.03;4.12;;;;;;;6.79;59.01;98401.93;2484937;93;21112;-65
2022/02/21 17:18:39;;;;;;;13.28;6.42;;;;;;;6.79;59.00;98403.25;2481390;93;21116;-65
2022/02/21 17:22:41;;;;;;;9.55;5.17;;;;;;;6.79;59.53;98395.80;2484757;94;21144;-65
2022/02/21 17:26:43;;;;;;;7.50;3.02;;;;;;;6.81;59.49;98388.55;2487992;93;21125;-71
2022/02/21 17:30:47;;;;;;;5.25;3.65;;;;;;;6.78;60.00;98383.09;2489505;93;21095;-70
2022/02/21 17:34:49;;;;;;;6.97;3.22;;;;;;;6.68;59.39;98382.30;2490176;93;21157;-67
2022/02/21 17:38:50;;;;;;;6.90;2.37;;;;;;;6.66;59.28;98378.98;2490423;93;21136;-67
2022/02/21 17:42:53;;;;;;;7.70;2.50;;;;;;;6.64;59.45;98376.97;2501127;92;21790;-67
2022/02/21 17:46:54;;;;;;;5.00;2.33;;;;;;;6.62;60.08;98375.79;2501125;92;21125;-67
2022/02/21 17:50:56;;;;;;;4.08;1.85;;;;;;;6.59;59.95;98370.80;2474447;94;21847;-67
2022/02/21 17:54:58;;;;;;;2.90;1.77;;;;;;;6.52;60.16;98361.81;2483913;93;21631;-66
2022/02/21 17:59:00;;;;;;;5.92;1.77;;;;;;;6.49;60.48;98358.16;2462980;93;21758;-66
2022/02/21 18:03:02;;;;;;;5.83;2.22;;;;;;;6.38;60.57;98363.95;2476250;93;21095;-66
2022/02/21 18:07:04;;;;;;;7.37;2.40;;;;;;;6.40;60.45;98356.72;2475583;94;22621;-66
2022/02/21 18:11:06;;;;;;;6.08;3.22;;;;;;;6.31;61.47;98356.29;2475498;93;21072;-66
2022/02/21 18:15:11;;;;;;;5.87;3.15;;;;;;;6.25;61.85;98354.20;2479249;94;21061;-69
2022/02/21 18:19:12;;;;;;;6.12;3.60;;;;;;;6.19;61.77;98349.05;2497809;93;21190;-67
2022/02/21 18:23:14;;;;;;;5.45;3.50;;;;;;;6.13;61.68;98352.25;2494423;93;21457;-68
2022/02/21 18:27:16;;;;;;;8.60;3.65;;;;;;;6.12;61.87;98353.22;2477442;93;21109;-68
2022/02/21 18:31:18;;;;;;;7.70;2.87;;;;;;;6.07;61.94;98354.97;2466070;93;21162;-69
2022/02/21 18:35:19;;;;;;;4.60;3.67;;;;;;;6.05;62.12;98349.01;2502348;92;21153;-68
2022/02/21 18:39:22;;;;;;;6.70;3.87;;;;;;;6.07;62.19;98352.33;2474644;94;21123;-69
2022/02/21 18:43:24;;;;;;;8.18;3.33;;;;;;;6.06;62.16;98354.63;2495929;92;21105;-69
2022/02/21 18:47:26;;;;;;;6.30;3.30;;;;;;;6.10;62.45;98356.03;2466977;93;21153;-69
2022/02/21 18:51:28;;;;;;;6.30;2.75;;;;;;;6.20;62.58;98361.74;2454703;95;21118;-69
2022/02/21 18:55:30;;;;;;;6.33;2.55;;;;;;;6.27;62.79;98352.25;2453972;95;21139;-68
2022/02/21 18:59:32;;;;;;;4.60;2.50;;;;;;;6.35;62.89;98344.45;2494965;92;21124;-68
2022/02/21 19:03:33;;;;;;;5.47;3.58;;;;;;;6.43;62.61;98336.61;2509077;92;21136;-68
2022/02/21 19:07:35;;;;;;;6.22;2.20;;;;;;;6.55;62.25;98343.02;2475065;94;21110;-68
2022/02/21 19:11:37;;;;;;;2.95;1.40;;;;;;;6.66;61.92;98338.84;2470072;93;21105;-68
2022/02/21 19:15:39;;;;;;;2.80;1.52;;;;;;;6.75;61.51;98337.12;2487672;93;21125;-68
2022/02/21 19:19:41;;;;;;;3.62;1.30;;;;;;;6.86;61.44;98340.03;2506950;92;21073;-68
2022/02/21 19:23:43;;;;;;;3.98;1.80;;;;;;;6.94;61.98;98339.28;2474732;94;21058;-66
2022/02/21 19:27:46;;;;;;;2.72;1.50;;;;;;;6.99;61.19;98335.72;2504133;92;21088;-67
2022/02/21 19:31:48;;;;;;;2.45;1.42;;;;;;;7.02;61.40;98339.37;2493380;92;21631;-66